RYR736 LIBD-LIEE
Flight info
| Callsign | RYR736 |
|---|---|
| Flight time | N/A |
| Altitude | 19000 |
| Route | TOPNO P748 BUMOK M742 LUNAR/N0438F340 DCT ROTUN/N0437F350 DCT POKAV DCT SUKUN/N0339F190 M603 IDEPA Q125 KOVAS |
| Aircraft | B738/M-SDE2E3FGHIRWXY/LB1 |
Departure
| Time | 2026-05-01 14:23 |
|---|---|
| Airport | Bari Karol Wojtyła International Airport (LIBD) |
Arrival
| Time | N/A |
|---|---|
| Airport | Cagliari Elmas Airport (LIEE) |
| Time | Latitude | Longitude | Altitude | Speed | Heading |
|---|---|---|---|---|---|
| 2026-05-01 14:01 | 41.13702 | 16.76800 | 135 ft | 0 kts | 212° |
| 2026-05-01 14:14 | 41.13721 | 16.76813 | 134 ft | 4 kts | 200° |
| 2026-05-01 14:14 | 41.13746 | 16.76821 | 133 ft | 4 kts | 180° |
| 2026-05-01 14:15 | 41.13773 | 16.76820 | 132 ft | 4 kts | 194° |
| 2026-05-01 14:15 | 41.13780 | 16.76821 | 127 ft | 1 kts | 263° |
| 2026-05-01 14:19 | 41.13833 | 16.76757 | 129 ft | 12 kts | 319° |
| 2026-05-01 14:19 | 41.13832 | 16.76649 | 132 ft | 12 kts | 249° |
| 2026-05-01 14:19 | 41.13802 | 16.76544 | 133 ft | 13 kts | 249° |
| 2026-05-01 14:19 | 41.13753 | 16.76372 | 134 ft | 23 kts | 250° |
| 2026-05-01 14:20 | 41.13698 | 16.76177 | 135 ft | 22 kts | 249° |
| 2026-05-01 14:20 | 41.13591 | 16.75801 | 137 ft | 21 kts | 249° |
| 2026-05-01 14:20 | 41.13540 | 16.75621 | 137 ft | 21 kts | 250° |
| 2026-05-01 14:21 | 41.13491 | 16.75446 | 142 ft | 20 kts | 249° |
| 2026-05-01 14:21 | 41.13443 | 16.75277 | 141 ft | 19 kts | 249° |
| 2026-05-01 14:21 | 41.13396 | 16.75113 | 146 ft | 19 kts | 249° |
| 2026-05-01 14:22 | 41.13370 | 16.74824 | 146 ft | 12 kts | 300° |
| 2026-05-01 14:22 | 41.13425 | 16.74727 | 142 ft | 15 kts | 325° |
| 2026-05-01 14:22 | 41.13486 | 16.74763 | 138 ft | 6 kts | 71° |
| 2026-05-01 14:22 | 41.13487 | 16.74767 | 138 ft | 0 kts | 71° |
| 2026-05-01 14:23 | 41.13491 | 16.74782 | 138 ft | 9 kts | 70° |
| 2026-05-01 14:23 | 41.13626 | 16.75244 | 139 ft | 101 kts | 68° |
| 2026-05-01 14:23 | 41.13959 | 16.76461 | 280 ft | 167 kts | 67° |
| 2026-05-01 14:23 | 41.14348 | 16.77948 | 1341 ft | 176 kts | 64° |
| 2026-05-01 14:24 | 41.14794 | 16.79460 | 2414 ft | 190 kts | 62° |
| 2026-05-01 14:24 | 41.15319 | 16.81201 | 2786 ft | 218 kts | 63° |
| 2026-05-01 14:24 | 41.15886 | 16.83137 | 3317 ft | 233 kts | 65° |
| 2026-05-01 14:24 | 41.16475 | 16.85174 | 4035 ft | 239 kts | 65° |
| 2026-05-01 14:25 | 41.17064 | 16.87221 | 5137 ft | 237 kts | 66° |
| 2026-05-01 14:25 | 41.17658 | 16.89260 | 6177 ft | 238 kts | 64° |
| 2026-05-01 14:25 | 41.18625 | 16.91020 | 7154 ft | 238 kts | 39° |
| 2026-05-01 14:25 | 41.20098 | 16.92063 | 7991 ft | 249 kts | 18° |
| 2026-05-01 14:26 | 41.21846 | 16.92246 | 8706 ft | 265 kts | 353° |
| 2026-05-01 14:26 | 41.25481 | 16.90970 | 10508 ft | 277 kts | 347° |
| 2026-05-01 14:26 | 41.27395 | 16.90168 | 10809 ft | 305 kts | 337° |
| 2026-05-01 14:27 | 41.29099 | 16.88322 | 11294 ft | 330 kts | 310° |
| 2026-05-01 14:27 | 41.30054 | 16.85495 | 12068 ft | 347 kts | 283° |
| 2026-05-01 14:27 | 41.29932 | 16.82261 | 13020 ft | 355 kts | 259° |
| 2026-05-01 14:28 | 41.28511 | 16.75928 | 14659 ft | 365 kts | 255° |
| 2026-05-01 14:28 | 41.27756 | 16.72691 | 15388 ft | 369 kts | 256° |
| 2026-05-01 14:28 | 41.27018 | 16.69400 | 16141 ft | 373 kts | 257° |
| 2026-05-01 14:28 | 41.26297 | 16.66075 | 16887 ft | 377 kts | 257° |
| 2026-05-01 14:29 | 41.25583 | 16.62711 | 17657 ft | 380 kts | 257° |
| 2026-05-01 14:29 | 41.24869 | 16.59321 | 18408 ft | 383 kts | 257° |
| 2026-05-01 14:30 | 41.21608 | 16.49620 | 20354 ft | 400 kts | 230° |
| 2026-05-01 14:30 | 41.19728 | 16.46879 | 21045 ft | 402 kts | 230° |
| 2026-05-01 14:30 | 41.17830 | 16.44128 | 21662 ft | 406 kts | 230° |
| 2026-05-01 14:31 | 41.14005 | 16.38539 | 22942 ft | 411 kts | 230° |
| 2026-05-01 14:31 | 41.12736 | 16.36670 | 23324 ft | 414 kts | 230° |
| 2026-05-01 14:31 | 41.10796 | 16.33806 | 23832 ft | 419 kts | 230° |
| 2026-05-01 14:31 | 41.08208 | 16.29978 | 24494 ft | 422 kts | 230° |
| 2026-05-01 14:32 | 41.06248 | 16.27080 | 25008 ft | 424 kts | 230° |
| 2026-05-01 14:32 | 41.04912 | 16.25107 | 25315 ft | 427 kts | 230° |
| 2026-05-01 14:32 | 41.02275 | 16.21216 | 25987 ft | 429 kts | 231° |
| 2026-05-01 14:32 | 41.00287 | 16.18287 | 26562 ft | 428 kts | 231° |
| 2026-05-01 14:33 | 40.98292 | 16.15348 | 27011 ft | 431 kts | 231° |
| 2026-05-01 14:33 | 40.96960 | 16.13388 | 27286 ft | 433 kts | 231° |
| 2026-05-01 14:33 | 40.94942 | 16.10406 | 27733 ft | 435 kts | 232° |
| 2026-05-01 14:33 | 40.93070 | 16.07268 | 28159 ft | 435 kts | 237° |
| 2026-05-01 14:34 | 40.90763 | 16.02930 | 28748 ft | 437 kts | 239° |
| 2026-05-01 14:34 | 40.89043 | 15.99610 | 29151 ft | 439 kts | 239° |
| 2026-05-01 14:34 | 40.87303 | 15.96286 | 29493 ft | 442 kts | 238° |
| 2026-05-01 14:34 | 40.85535 | 15.92965 | 30125 ft | 438 kts | 239° |
| 2026-05-01 14:35 | 40.84370 | 15.90802 | 30580 ft | 434 kts | 238° |
| 2026-05-01 14:35 | 40.82616 | 15.87566 | 31028 ft | 433 kts | 238° |
| 2026-05-01 14:35 | 40.80859 | 15.84336 | 31328 ft | 435 kts | 238° |
| 2026-05-01 14:35 | 40.78507 | 15.80017 | 31768 ft | 437 kts | 238° |
| 2026-05-01 14:36 | 40.76735 | 15.76768 | 32200 ft | 436 kts | 239° |
| 2026-05-01 14:36 | 40.75540 | 15.74579 | 32495 ft | 435 kts | 239° |
| 2026-05-01 14:36 | 40.73802 | 15.71381 | 32880 ft | 434 kts | 240° |
| 2026-05-01 14:36 | 40.72332 | 15.67947 | 33206 ft | 428 kts | 251° |
| 2026-05-01 14:37 | 40.71310 | 15.64286 | 33593 ft | 423 kts | 258° |
| 2026-05-01 14:37 | 40.70718 | 15.60523 | 33919 ft | 418 kts | 267° |
| 2026-05-01 14:37 | 40.70405 | 15.56747 | 34451 ft | 411 kts | 268° |
| 2026-05-01 14:37 | 40.70109 | 15.53013 | 34817 ft | 410 kts | 268° |
| 2026-05-01 14:38 | 40.69685 | 15.48055 | 35124 ft | 412 kts | 267° |
| 2026-05-01 14:38 | 40.69180 | 15.41723 | 35184 ft | 415 kts | 271° |
| 2026-05-01 14:39 | 40.69578 | 15.34260 | 35191 ft | 408 kts | 278° |
| 2026-05-01 14:39 | 40.70168 | 15.26869 | 35172 ft | 404 kts | 279° |
| 2026-05-01 14:40 | 40.70736 | 15.19518 | 35177 ft | 402 kts | 279° |
| 2026-05-01 14:40 | 40.71281 | 15.12187 | 35188 ft | 401 kts | 279° |
| 2026-05-01 14:41 | 40.71810 | 15.04909 | 35189 ft | 401 kts | 278° |
| 2026-05-01 14:41 | 40.72336 | 14.97585 | 35189 ft | 402 kts | 278° |
| 2026-05-01 14:42 | 40.72858 | 14.90246 | 35172 ft | 402 kts | 279° |
| 2026-05-01 14:42 | 40.73378 | 14.82885 | 35186 ft | 405 kts | 279° |
| 2026-05-01 14:43 | 40.73892 | 14.75531 | 35176 ft | 406 kts | 279° |
| 2026-05-01 14:43 | 40.74405 | 14.68110 | 35184 ft | 407 kts | 279° |
| 2026-05-01 14:44 | 40.74916 | 14.60658 | 35185 ft | 408 kts | 278° |
| 2026-05-01 14:44 | 40.75675 | 14.49458 | 35185 ft | 409 kts | 278° |
| 2026-05-01 14:45 | 40.76419 | 14.38305 | 35185 ft | 408 kts | 278° |
| 2026-05-01 14:46 | 40.76910 | 14.30848 | 35177 ft | 408 kts | 278° |
| 2026-05-01 14:46 | 40.77637 | 14.19685 | 35169 ft | 407 kts | 279° |
| 2026-05-01 14:47 | 40.78114 | 14.12265 | 35174 ft | 406 kts | 279° |
| 2026-05-01 14:48 | 40.78817 | 14.01200 | 35191 ft | 405 kts | 279° |
| 2026-05-01 14:48 | 40.79512 | 13.90089 | 35190 ft | 405 kts | 279° |
| 2026-05-01 14:49 | 40.80414 | 13.75394 | 35185 ft | 404 kts | 279° |
| 2026-05-01 14:50 | 40.81301 | 13.60649 | 35193 ft | 402 kts | 279° |
| 2026-05-01 14:51 | 40.81950 | 13.49664 | 35193 ft | 402 kts | 279° |
| 2026-05-01 14:52 | 40.82589 | 13.38644 | 35194 ft | 401 kts | 279° |
| 2026-05-01 14:53 | 40.83218 | 13.27621 | 35198 ft | 402 kts | 279° |
| 2026-05-01 14:53 | 40.83630 | 13.20313 | 35205 ft | 402 kts | 279° |
| 2026-05-01 14:54 | 40.84040 | 13.12945 | 35156 ft | 403 kts | 279° |
| 2026-05-01 14:54 | 40.84444 | 13.05584 | 35195 ft | 402 kts | 280° |
| 2026-05-01 14:55 | 40.84844 | 12.98235 | 35204 ft | 401 kts | 280° |
| 2026-05-01 14:55 | 40.85236 | 12.90936 | 35215 ft | 401 kts | 280° |
| 2026-05-01 14:56 | 40.85626 | 12.83587 | 35210 ft | 401 kts | 280° |
| 2026-05-01 14:56 | 40.86010 | 12.76250 | 35161 ft | 400 kts | 280° |
| 2026-05-01 14:57 | 40.86389 | 12.68937 | 35195 ft | 399 kts | 280° |
| 2026-05-01 14:57 | 40.86943 | 12.58075 | 35209 ft | 396 kts | 280° |
| 2026-05-01 14:58 | 40.87306 | 12.50834 | 35209 ft | 394 kts | 280° |
| 2026-05-01 14:58 | 40.87664 | 12.43623 | 35207 ft | 392 kts | 280° |
| 2026-05-01 14:59 | 40.88016 | 12.36454 | 35191 ft | 389 kts | 280° |
| 2026-05-01 14:59 | 40.88301 | 12.29356 | 35203 ft | 392 kts | 276° |
| 2026-05-01 15:00 | 40.87829 | 12.18505 | 35215 ft | 396 kts | 273° |
| 2026-05-01 15:01 | 40.87458 | 12.11247 | 35218 ft | 397 kts | 274° |
| 2026-05-01 15:01 | 40.87110 | 12.03963 | 35175 ft | 398 kts | 274° |
| 2026-05-01 15:02 | 40.86773 | 11.96720 | 35210 ft | 398 kts | 273° |
| 2026-05-01 15:02 | 40.86431 | 11.89399 | 35222 ft | 400 kts | 273° |
| 2026-05-01 15:03 | 40.86083 | 11.82054 | 35221 ft | 401 kts | 273° |
| 2026-05-01 15:03 | 40.85729 | 11.74682 | 35221 ft | 403 kts | 273° |
| 2026-05-01 15:04 | 40.85372 | 11.67345 | 35182 ft | 403 kts | 273° |
| 2026-05-01 15:04 | 40.85007 | 11.59957 | 35214 ft | 403 kts | 272° |
| 2026-05-01 15:05 | 40.84637 | 11.52559 | 35222 ft | 404 kts | 272° |
| 2026-05-01 15:05 | 40.84264 | 11.45158 | 35227 ft | 404 kts | 272° |
| 2026-05-01 15:06 | 40.83885 | 11.37800 | 35228 ft | 404 kts | 272° |
| 2026-05-01 15:06 | 40.83486 | 11.30404 | 35207 ft | 404 kts | 272° |
| 2026-05-01 15:07 | 40.83081 | 11.23019 | 35223 ft | 402 kts | 272° |
| 2026-05-01 15:07 | 40.82674 | 11.15659 | 35224 ft | 402 kts | 272° |
| 2026-05-01 15:08 | 40.82267 | 11.08354 | 35226 ft | 402 kts | 272° |
| 2026-05-01 15:08 | 40.81853 | 11.01003 | 35228 ft | 401 kts | 271° |
| 2026-05-01 15:09 | 40.81435 | 10.93669 | 35228 ft | 400 kts | 271° |
| 2026-05-01 15:09 | 40.81013 | 10.86354 | 35229 ft | 399 kts | 271° |
| 2026-05-01 15:10 | 40.80591 | 10.79116 | 35230 ft | 398 kts | 271° |
| 2026-05-01 15:10 | 40.79948 | 10.68216 | 35231 ft | 396 kts | 271° |
| 2026-05-01 15:11 | 40.79297 | 10.57355 | 35220 ft | 396 kts | 271° |
| 2026-05-01 15:12 | 40.78860 | 10.50171 | 35225 ft | 395 kts | 271° |
| 2026-05-01 15:12 | 40.78193 | 10.39377 | 35222 ft | 386 kts | 271° |
| 2026-05-01 15:13 | 40.77545 | 10.29153 | 35214 ft | 354 kts | 271° |
| 2026-05-01 15:14 | 40.77150 | 10.22915 | 34947 ft | 338 kts | 271° |
| 2026-05-01 15:14 | 40.76957 | 10.19828 | 34367 ft | 341 kts | 271° |
| 2026-05-01 15:14 | 40.76552 | 10.13257 | 32556 ft | 365 kts | 271° |
| 2026-05-01 15:15 | 40.76117 | 10.06601 | 31735 ft | 362 kts | 271° |
| 2026-05-01 15:15 | 40.75687 | 10.00035 | 31009 ft | 357 kts | 271° |
| 2026-05-01 15:16 | 40.75264 | 9.93597 | 30261 ft | 354 kts | 271° |
| 2026-05-01 15:16 | 40.74832 | 9.87162 | 29386 ft | 351 kts | 271° |
| 2026-05-01 15:17 | 40.74392 | 9.80809 | 28661 ft | 343 kts | 270° |
| 2026-05-01 15:18 | 40.73753 | 9.71588 | 27630 ft | 334 kts | 270° |
| 2026-05-01 15:18 | 40.73542 | 9.68548 | 27290 ft | 332 kts | 270° |
| 2026-05-01 15:19 | 40.72316 | 9.59556 | 26251 ft | 355 kts | 244° |
| 2026-05-01 15:19 | 40.68227 | 9.55493 | 25561 ft | 387 kts | 205° |
| 2026-05-01 15:19 | 40.65702 | 9.54267 | 25155 ft | 387 kts | 204° |
| 2026-05-01 15:20 | 40.60711 | 9.51830 | 24392 ft | 384 kts | 204° |
| 2026-05-01 15:20 | 40.58213 | 9.50575 | 24021 ft | 384 kts | 204° |
| 2026-05-01 15:20 | 40.55727 | 9.49314 | 23625 ft | 383 kts | 204° |
| 2026-05-01 15:21 | 40.53246 | 9.48051 | 23229 ft | 381 kts | 204° |
| 2026-05-01 15:21 | 40.50783 | 9.46797 | 22849 ft | 379 kts | 204° |
| 2026-05-01 15:21 | 40.48327 | 9.45546 | 22462 ft | 376 kts | 203° |
| 2026-05-01 15:21 | 40.45899 | 9.44311 | 22122 ft | 374 kts | 203° |
| 2026-05-01 15:22 | 40.41120 | 9.41883 | 21425 ft | 367 kts | 203° |
| 2026-05-01 15:22 | 40.38747 | 9.40680 | 21095 ft | 365 kts | 202° |
| 2026-05-01 15:22 | 40.36382 | 9.39482 | 20711 ft | 365 kts | 202° |
| 2026-05-01 15:23 | 40.34016 | 9.38289 | 20354 ft | 364 kts | 202° |
| 2026-05-01 15:23 | 40.31652 | 9.37098 | 19994 ft | 364 kts | 201° |
| 2026-05-01 15:23 | 40.29293 | 9.35910 | 19628 ft | 363 kts | 201° |
| 2026-05-01 15:23 | 40.26941 | 9.34726 | 19292 ft | 362 kts | 201° |
| 2026-05-01 15:24 | 40.24592 | 9.33545 | 18935 ft | 361 kts | 201° |
| 2026-05-01 15:24 | 40.22243 | 9.32365 | 18591 ft | 362 kts | 201° |
| 2026-05-01 15:24 | 40.19893 | 9.31184 | 18194 ft | 362 kts | 201° |
| 2026-05-01 15:24 | 40.17582 | 9.30025 | 17836 ft | 360 kts | 201° |
| 2026-05-01 15:25 | 40.15250 | 9.28855 | 17487 ft | 358 kts | 201° |
| 2026-05-01 15:25 | 40.12942 | 9.27698 | 17149 ft | 356 kts | 201° |
| 2026-05-01 15:25 | 40.10639 | 9.26544 | 16807 ft | 354 kts | 201° |
| 2026-05-01 15:25 | 40.08344 | 9.25396 | 16477 ft | 352 kts | 201° |
| 2026-05-01 15:26 | 40.06062 | 9.24254 | 16124 ft | 350 kts | 201° |
| 2026-05-01 15:26 | 40.03795 | 9.23121 | 15791 ft | 348 kts | 201° |
| 2026-05-01 15:26 | 40.01540 | 9.21994 | 15447 ft | 346 kts | 201° |
| 2026-05-01 15:26 | 39.99298 | 9.20875 | 15107 ft | 344 kts | 201° |
| 2026-05-01 15:27 | 39.97105 | 9.19780 | 14795 ft | 340 kts | 202° |
| 2026-05-01 15:27 | 39.94903 | 9.18681 | 14489 ft | 338 kts | 202° |
| 2026-05-01 15:27 | 39.92710 | 9.17589 | 14156 ft | 337 kts | 202° |
| 2026-05-01 15:28 | 39.88362 | 9.15427 | 13464 ft | 332 kts | 202° |
| 2026-05-01 15:28 | 39.86209 | 9.14357 | 13136 ft | 330 kts | 202° |
| 2026-05-01 15:28 | 39.84021 | 9.13450 | 12799 ft | 329 kts | 196° |
| 2026-05-01 15:29 | 39.79610 | 9.12028 | 12164 ft | 324 kts | 194° |
| 2026-05-01 15:29 | 39.77455 | 9.11344 | 11841 ft | 322 kts | 194° |
| 2026-05-01 15:29 | 39.73137 | 9.09938 | 11231 ft | 318 kts | 195° |
| 2026-05-01 15:30 | 39.67846 | 9.08181 | 10474 ft | 313 kts | 194° |
| 2026-05-01 15:31 | 39.51231 | 9.05560 | 6672 ft | 290 kts | 219° |
| 2026-05-01 15:31 | 39.44961 | 8.99582 | 4865 ft | 270 kts | 217° |
| 2026-05-01 15:32 | 39.40732 | 8.95597 | 4378 ft | 212 kts | 216° |
| 2026-05-01 15:32 | 39.38952 | 8.93924 | 4166 ft | 186 kts | 216° |
| 2026-05-01 15:33 | 39.35748 | 8.93105 | 3151 ft | 168 kts | 137° |
| 2026-05-01 15:34 | 39.33289 | 8.95958 | 2167 ft | 143 kts | 134° |